Airfield :
LOGIN :

Register | Disclaimer

   EN    FR    IT 

 










Legend :    VFR   Marginal VFR   IFR   Intensive IFR   Very Intensive IFR
Visi :
Ceiling :
>= 8 km
>= 3000ft
5 to 8 km
1000 to 3000 ft
1500m to 5 km
500 to 1000 ft
800 to 1500m
200 to 500 ft
< 800m
< 200 ft
Symbols :   Thunderstorms  Fog  Heavy snow  Heavy precipitations  Wind > 20 kt
SIGMETs :     Misc.  Thunderstorms  Icing  Turbulence  Mountain Waves  Volcanic Ashes






- Airport Elevation : 68 ft


ESCM - Uppsala

CURRENT METAR :
  • 201850Z AUTO 08002KT 0350 0250// R03/0800N R21/1500U FG VV001 03/03 Q1028

EXPIRED METARs :
  • 201820Z AUTO 10003KT 0200 R03/0650N R21/0900N FG VV002 04/04 Q1028
  • 201750Z AUTO 09003KT 0350 0200// R03/0650V0900D R21/1000VP2000D FG VV002 03/03 Q1028
  • 201720Z AUTO 06004KT 3500 0900// R03/1900N R21/P2000N BR BKN072/// 04/04 Q1028
  • 201650Z AUTO 07002KT 0900 0550// R03/1400N R21/P2000N FG FEW017/// BKN030/// 04/04 Q1028
  • 201620Z AUTO 00000KT 4300 0550// R03/1300VP2000D R21/P2000N BR FEW020/// OVC027/// 05/05 Q1028

Expired Forecast.



MET'MAP, your aeronautical weather chart ! - Copyright ORBIFLY December 2007 - Disclaimer

ORBIFLY MET'MAP TEAM :

Programming & Development : Alexandra Zaïnal
Concept & Development : Baudouin d'Aumeries
Co-Development & Prog : Marc-Olivier Méhu
Technical & hardware support : Manuel Goepfert

Contact : metmap@orbifly.com




SOURCES & CREDITS :

   NOAA